sensor_id;sensor_type;location;lat;lon;timestamp;pressure;altitude;pressure_sealevel;temperature;humidity
63819;BME280;49970;54.976;73.248;2023-11-21T00:00:23;102710.63;;;-10.76;91.81
63819;BME280;49970;54.976;73.248;2023-11-21T00:02:49;102713.97;;;-10.77;91.85
63819;BME280;49970;54.976;73.248;2023-11-21T00:05:16;102717.06;;;-10.83;92.05
63819;BME280;49970;54.976;73.248;2023-11-21T00:07:43;102728.91;;;-10.85;91.75
63819;BME280;49970;54.976;73.248;2023-11-21T00:10:10;102737.56;;;-10.83;91.86
63819;BME280;49970;54.976;73.248;2023-11-21T00:12:37;102749.16;;;-10.89;91.72
63819;BME280;49970;54.976;73.248;2023-11-21T00:15:04;102757.44;;;-10.93;91.58
63819;BME280;49970;54.976;73.248;2023-11-21T00:17:40;102758.88;;;-10.98;91.26
63819;BME280;49970;54.976;73.248;2023-11-21T00:20:06;102770.50;;;-11.04;91.18
63819;BME280;49970;54.976;73.248;2023-11-21T00:22:36;102769.31;;;-11.10;91.11
63819;BME280;49970;54.976;73.248;2023-11-21T00:25:02;102769.06;;;-11.15;90.54
63819;BME280;49970;54.976;73.248;2023-11-21T00:27:32;102768.06;;;-11.17;91.33
63819;BME280;49970;54.976;73.248;2023-11-21T00:29:58;102760.50;;;-11.15;91.31
63819;BME280;49970;54.976;73.248;2023-11-21T00:32:24;102764.88;;;-11.13;91.31
63819;BME280;49970;54.976;73.248;2023-11-21T00:34:50;102766.56;;;-11.13;91.24
63819;BME280;49970;54.976;73.248;2023-11-21T00:37:16;102773.28;;;-11.15;91.13
63819;BME280;49970;54.976;73.248;2023-11-21T00:39:43;102777.69;;;-11.13;90.88
63819;BME280;49970;54.976;73.248;2023-11-21T00:42:09;102788.91;;;-11.11;91.24
63819;BME280;49970;54.976;73.248;2023-11-21T00:44:38;102782.03;;;-11.12;91.07
63819;BME280;49970;54.976;73.248;2023-11-21T00:47:05;102771.25;;;-11.21;90.73
63819;BME280;49970;54.976;73.248;2023-11-21T00:49:31;102779.53;;;-11.25;90.81
63819;BME280;49970;54.976;73.248;2023-11-21T00:51:58;102794.13;;;-11.24;90.85
63819;BME280;49970;54.976;73.248;2023-11-21T00:54:27;102788.72;;;-11.29;90.90
63819;BME280;49970;54.976;73.248;2023-11-21T00:56:53;102786.69;;;-11.34;90.80
63819;BME280;49970;54.976;73.248;2023-11-21T00:59:19;102793.41;;;-11.36;91.03
63819;BME280;49970;54.976;73.248;2023-11-21T01:01:46;102785.81;;;-11.35;90.98
63819;BME280;49970;54.976;73.248;2023-11-21T01:04:12;102780.00;;;-11.32;90.86
63819;BME280;49970;54.976;73.248;2023-11-21T01:06:39;102772.41;;;-11.31;91.01
63819;BME280;49970;54.976;73.248;2023-11-21T01:09:05;102767.47;;;-11.27;91.46
63819;BME280;49970;54.976;73.248;2023-11-21T01:11:35;102777.84;;;-11.24;91.04
63819;BME280;49970;54.976;73.248;2023-11-21T01:14:03;102777.97;;;-11.23;91.05
63819;BME280;49970;54.976;73.248;2023-11-21T01:16:31;102778.66;;;-11.25;91.10
63819;BME280;49970;54.976;73.248;2023-11-21T01:18:59;102793.75;;;-11.30;90.78
63819;BME280;49970;54.976;73.248;2023-11-21T01:21:28;102790.13;;;-11.34;90.86
63819;BME280;49970;54.976;73.248;2023-11-21T01:23:55;102790.50;;;-11.27;91.03
63819;BME280;49970;54.976;73.248;2023-11-21T01:26:21;102787.06;;;-11.28;90.77
63819;BME280;49970;54.976;73.248;2023-11-21T01:28:47;102786.06;;;-11.30;90.98
63819;BME280;49970;54.976;73.248;2023-11-21T01:31:17;102794.63;;;-11.30;91.28
63819;BME280;49970;54.976;73.248;2023-11-21T01:33:44;102792.88;;;-11.31;90.71
63819;BME280;49970;54.976;73.248;2023-11-21T01:36:10;102791.91;;;-11.33;91.01
63819;BME280;49970;54.976;73.248;2023-11-21T01:38:36;102783.19;;;-11.36;90.89
63819;BME280;49970;54.976;73.248;2023-11-21T01:41:02;102784.94;;;-11.35;90.84
63819;BME280;49970;54.976;73.248;2023-11-21T01:43:29;102776.56;;;-11.33;90.74
63819;BME280;49970;54.976;73.248;2023-11-21T01:45:57;102775.03;;;-11.29;91.06
63819;BME280;49970;54.976;73.248;2023-11-21T01:48:25;102778.66;;;-11.25;91.05
63819;BME280;49970;54.976;73.248;2023-11-21T01:50:52;102777.84;;;-11.24;91.01
63819;BME280;49970;54.976;73.248;2023-11-21T01:53:18;102777.16;;;-11.22;91.15
63819;BME280;49970;54.976;73.248;2023-11-21T01:55:45;102771.09;;;-11.24;91.10
63819;BME280;49970;54.976;73.248;2023-11-21T01:58:12;102757.75;;;-11.33;90.69
63819;BME280;49970;54.976;73.248;2023-11-21T02:00:40;102765.78;;;-11.27;90.93
63819;BME280;49970;54.976;73.248;2023-11-21T02:03:06;102764.81;;;-11.29;90.87
63819;BME280;49970;54.976;73.248;2023-11-21T02:05:33;102770.81;;;-11.29;90.94
63819;BME280;49970;54.976;73.248;2023-11-21T02:07:59;102761.38;;;-11.30;90.94
63819;BME280;49970;54.976;73.248;2023-11-21T02:10:26;102766.66;;;-11.26;90.77
63819;BME280;49970;54.976;73.248;2023-11-21T02:12:52;102770.38;;;-11.21;90.33
63819;BME280;49970;54.976;73.248;2023-11-21T02:15:20;102773.19;;;-11.17;91.54
63819;BME280;49970;54.976;73.248;2023-11-21T02:17:48;102783.41;;;-11.17;90.87
63819;BME280;49970;54.976;73.248;2023-11-21T02:20:18;102781.22;;;-11.25;90.79
63819;BME280;49970;54.976;73.248;2023-11-21T02:22:52;102782.19;;;-11.38;90.44
63819;BME280;49970;54.976;73.248;2023-11-21T02:25:28;102794.09;;;-11.39;90.78
63819;BME280;49970;54.976;73.248;2023-11-21T02:27:55;102781.66;;;-11.47;90.31
63819;BME280;49970;54.976;73.248;2023-11-21T02:30:22;102792.09;;;-11.44;90.74
63819;BME280;49970;54.976;73.248;2023-11-21T02:32:48;102791.47;;;-11.40;90.67
63819;BME280;49970;54.976;73.248;2023-11-21T02:35:15;102796.84;;;-11.36;90.70
63819;BME280;49970;54.976;73.248;2023-11-21T02:37:47;102785.72;;;-11.36;90.75
63819;BME280;49970;54.976;73.248;2023-11-21T02:40:14;102772.84;;;-11.38;90.76
63819;BME280;49970;54.976;73.248;2023-11-21T02:42:44;102767.38;;;-11.44;90.83
63819;BME280;49970;54.976;73.248;2023-11-21T02:45:10;102779.44;;;-11.41;90.46
63819;BME280;49970;54.976;73.248;2023-11-21T02:47:45;102787.03;;;-11.43;90.41
63819;BME280;49970;54.976;73.248;2023-11-21T02:50:12;102780.25;;;-11.42;90.49
63819;BME280;49970;54.976;73.248;2023-11-21T02:52:38;102774.25;;;-11.43;90.29
63819;BME280;49970;54.976;73.248;2023-11-21T02:55:06;102771.50;;;-11.46;90.44
63819;BME280;49970;54.976;73.248;2023-11-21T02:57:33;102781.47;;;-11.50;90.34
63819;BME280;49970;54.976;73.248;2023-11-21T03:00:00;102780.41;;;-11.54;90.12
63819;BME280;49970;54.976;73.248;2023-11-21T03:02:26;102773.53;;;-11.55;89.81
63819;BME280;49970;54.976;73.248;2023-11-21T03:04:53;102769.41;;;-11.53;89.94
63819;BME280;49970;54.976;73.248;2023-11-21T03:07:19;102761.38;;;-11.59;90.30
63819;BME280;49970;54.976;73.248;2023-11-21T03:09:45;102772.84;;;-11.52;90.05
63819;BME280;49970;54.976;73.248;2023-11-21T03:12:12;102770.28;;;-11.52;90.19
63819;BME280;49970;54.976;73.248;2023-11-21T03:14:39;102764.19;;;-11.55;90.12
63819;BME280;49970;54.976;73.248;2023-11-21T03:17:06;102765.78;;;-11.57;90.49
63819;BME280;49970;54.976;73.248;2023-11-21T03:19:32;102758.28;;;-11.54;90.17
63819;BME280;49970;54.976;73.248;2023-11-21T03:21:58;102764.19;;;-11.55;90.25
63819;BME280;49970;54.976;73.248;2023-11-21T03:24:25;102768.44;;;-11.55;89.73
63819;BME280;49970;54.976;73.248;2023-11-21T03:26:52;102770.19;;;-11.54;89.88
63819;BME280;49970;54.976;73.248;2023-11-21T03:29:18;102793.19;;;-11.54;89.64
63819;BME280;49970;54.976;73.248;2023-11-21T03:31:45;102792.44;;;-11.53;90.18
63819;BME280;49970;54.976;73.248;2023-11-21T03:34:16;102785.63;;;-11.52;90.11
63819;BME280;49970;54.976;73.248;2023-11-21T03:36:43;102775.16;;;-11.57;90.35
63819;BME280;49970;54.976;73.248;2023-11-21T03:39:09;102788.09;;;-11.54;90.11
63819;BME280;49970;54.976;73.248;2023-11-21T03:41:35;102794.78;;;-11.56;90.47
63819;BME280;49970;54.976;73.248;2023-11-21T03:44:02;102810.13;;;-11.56;90.07
63819;BME280;49970;54.976;73.248;2023-11-21T03:46:28;102814.44;;;-11.55;90.15
63819;BME280;49970;54.976;73.248;2023-11-21T03:48:54;102826.56;;;-11.52;90.22
63819;BME280;49970;54.976;73.248;2023-11-21T03:51:21;102813.75;;;-11.52;90.08
63819;BME280;49970;54.976;73.248;2023-11-21T03:53:47;102814.84;;;-11.49;90.59
63819;BME280;49970;54.976;73.248;2023-11-21T03:56:33;102803.69;;;-11.49;90.26
63819;BME280;49970;54.976;73.248;2023-11-21T04:00:29;102799.56;;;-11.47;89.68
63819;BME280;49970;54.976;73.248;2023-11-21T04:04:25;102798.41;;;-11.52;90.40
63819;BME280;49970;54.976;73.248;2023-11-21T04:07:56;102782.28;;;-11.51;90.45
63819;BME280;49970;54.976;73.248;2023-11-21T04:11:28;102780.00;;;-11.47;89.91
63819;BME280;49970;54.976;73.248;2023-11-21T04:15:03;102787.91;;;-11.42;90.22
63819;BME280;49970;54.976;73.248;2023-11-21T04:18:58;102787.91;;;-11.42;90.04
63819;BME280;49970;54.976;73.248;2023-11-21T04:23:00;102777.94;;;-11.38;90.17
63819;BME280;49970;54.976;73.248;2023-11-21T04:26:31;102772.56;;;-11.42;90.25
63819;BME280;49970;54.976;73.248;2023-11-21T04:30:27;102778.84;;;-11.52;89.79
63819;BME280;49970;54.976;73.248;2023-11-21T04:33:59;102752.13;;;-11.57;89.61
63819;BME280;49970;54.976;73.248;2023-11-21T04:37:34;102762.50;;;-11.54;89.65
63819;BME280;49970;54.976;73.248;2023-11-21T04:40:49;102761.47;;;-11.58;89.97
63819;BME280;49970;54.976;73.248;2023-11-21T04:44:01;102744.88;;;-11.49;89.69
63819;BME280;49970;54.976;73.248;2023-11-21T04:46:27;102737.19;;;-11.49;89.66
63819;BME280;49970;54.976;73.248;2023-11-21T04:48:53;102720.28;;;-11.47;89.60
63819;BME280;49970;54.976;73.248;2023-11-21T04:51:19;102716.31;;;-11.42;89.47
63819;BME280;49970;54.976;73.248;2023-11-21T04:53:45;102727.78;;;-11.36;89.56
63819;BME280;49970;54.976;73.248;2023-11-21T04:56:11;102735.53;;;-11.34;89.44
63819;BME280;49970;54.976;73.248;2023-11-21T04:58:38;102747.63;;;-11.32;89.54
63819;BME280;49970;54.976;73.248;2023-11-21T05:01:07;102762.00;;;-11.34;89.50
63819;BME280;49970;54.976;73.248;2023-11-21T05:03:33;102753.53;;;-11.33;89.37
63819;BME280;49970;54.976;73.248;2023-11-21T05:06:00;102756.38;;;-11.28;89.75
63819;BME280;49970;54.976;73.248;2023-11-21T05:08:26;102759.06;;;-11.25;89.63
63819;BME280;49970;54.976;73.248;2023-11-21T05:10:53;102756.50;;;-11.25;89.43
63819;BME280;49970;54.976;73.248;2023-11-21T05:13:20;102759.31;;;-11.20;88.84
63819;BME280;49970;54.976;73.248;2023-11-21T05:15:46;102763.75;;;-11.18;89.47
63819;BME280;49970;54.976;73.248;2023-11-21T05:18:12;102758.31;;;-11.24;89.51
63819;BME280;49970;54.976;73.248;2023-11-21T05:20:40;102748.06;;;-11.24;89.54
63819;BME280;49970;54.976;73.248;2023-11-21T05:23:07;102744.53;;;-11.26;89.18
63819;BME280;49970;54.976;73.248;2023-11-21T05:25:34;102742.03;;;-11.24;88.78
63819;BME280;49970;54.976;73.248;2023-11-21T05:28:00;102745.41;;;-11.25;89.28
63819;BME280;49970;54.976;73.248;2023-11-21T05:30:28;102749.47;;;-11.29;89.16
63819;BME280;49970;54.976;73.248;2023-11-21T05:32:54;102742.16;;;-11.38;88.96
63819;BME280;49970;54.976;73.248;2023-11-21T05:35:20;102762.09;;;-11.47;88.84
63819;BME280;49970;54.976;73.248;2023-11-21T05:37:47;102757.94;;;-11.60;88.21
63819;BME280;49970;54.976;73.248;2023-11-21T05:40:13;102756.78;;;-11.65;88.65
63819;BME280;49970;54.976;73.248;2023-11-21T05:42:40;102766.03;;;-11.67;88.52
63819;BME280;49970;54.976;73.248;2023-11-21T05:45:07;102775.50;;;-11.66;88.72
63819;BME280;49970;54.976;73.248;2023-11-21T05:47:38;102772.59;;;-11.57;89.04
63819;BME280;49970;54.976;73.248;2023-11-21T05:50:08;102770.44;;;-11.49;89.48
63819;BME280;49970;54.976;73.248;2023-11-21T05:52:41;102760.41;;;-11.46;89.03
63819;BME280;49970;54.976;73.248;2023-11-21T05:55:08;102758.72;;;-11.46;88.88
63819;BME280;49970;54.976;73.248;2023-11-21T05:57:35;102753.72;;;-11.44;88.92
63819;BME280;49970;54.976;73.248;2023-11-21T06:00:06;102759.00;;;-11.41;89.35
63819;BME280;49970;54.976;73.248;2023-11-21T06:02:44;102754.06;;;-11.38;88.64
63819;BME280;49970;54.976;73.248;2023-11-21T06:05:11;102741.38;;;-11.37;88.98
63819;BME280;49970;54.976;73.248;2023-11-21T06:07:37;102748.31;;;-11.34;89.01
63819;BME280;49970;54.976;73.248;2023-11-21T06:10:05;102750.19;;;-11.32;89.04
63819;BME280;49970;54.976;73.248;2023-11-21T06:12:33;102752.63;;;-11.33;88.83
63819;BME280;49970;54.976;73.248;2023-11-21T06:15:05;102729.28;;;-11.39;88.93
63819;BME280;49970;54.976;73.248;2023-11-21T06:17:37;102744.53;;;-11.26;89.10
63819;BME280;49970;54.976;73.248;2023-11-21T06:20:04;102729.88;;;-11.29;89.43
63819;BME280;49970;54.976;73.248;2023-11-21T06:22:38;102712.78;;;-11.30;nan
63819;BME280;49970;54.976;73.248;2023-11-21T06:25:05;102729.88;;;-11.29;89.24
63819;BME280;49970;54.976;73.248;2023-11-21T06:27:32;102738.00;;;-11.21;89.22
63819;BME280;49970;54.976;73.248;2023-11-21T06:30:00;102740.19;;;-11.12;nan
63819;BME280;49970;54.976;73.248;2023-11-21T06:32:26;102725.00;;;-11.09;88.76
63819;BME280;49970;54.976;73.248;2023-11-21T06:34:52;102728.38;;;-11.10;88.83
63819;BME280;49970;54.976;73.248;2023-11-21T06:37:21;102725.06;;;-11.08;88.88
63819;BME280;49970;54.976;73.248;2023-11-21T06:39:49;102713.25;;;-11.06;88.77
63819;BME280;49970;54.976;73.248;2023-11-21T06:42:18;102707.34;;;-11.05;88.73
63819;BME280;49970;54.976;73.248;2023-11-21T06:44:47;102709.19;;;-11.02;88.36
63819;BME280;49970;54.976;73.248;2023-11-21T06:47:14;102698.34;;;-10.98;88.78
63819;BME280;49970;54.976;73.248;2023-11-21T06:49:42;102708.19;;;-10.89;88.81
63819;BME280;49970;54.976;73.248;2023-11-21T06:52:09;102702.53;;;-10.84;89.25
63819;BME280;49970;54.976;73.248;2023-11-21T06:54:55;102682.47;;;-10.76;89.62
63819;BME280;49970;54.976;73.248;2023-11-21T06:58:06;102691.44;;;-10.68;89.76
63819;BME280;49970;54.976;73.248;2023-11-21T07:00:33;102694.78;;;-10.69;88.99
63819;BME280;49970;54.976;73.248;2023-11-21T07:03:00;102692.94;;;-10.71;88.88
63819;BME280;49970;54.976;73.248;2023-11-21T07:05:26;102678.22;;;-10.75;88.95
63819;BME280;49970;54.976;73.248;2023-11-21T07:07:52;102682.53;;;-10.74;88.74
63819;BME280;49970;54.976;73.248;2023-11-21T07:10:19;102681.13;;;-10.69;89.64
63819;BME280;49970;54.976;73.248;2023-11-21T07:12:46;102663.72;;;-10.75;89.59
63819;BME280;49970;54.976;73.248;2023-11-21T07:15:12;102678.63;;;-10.68;89.10
63819;BME280;49970;54.976;73.248;2023-11-21T07:17:38;102670.38;;;-10.62;88.95
63819;BME280;49970;54.976;73.248;2023-11-21T07:20:06;102685.22;;;-10.57;89.11
63819;BME280;49970;54.976;73.248;2023-11-21T07:22:32;102677.84;;;-10.50;90.10
63819;BME280;49970;54.976;73.248;2023-11-21T07:24:58;102682.50;;;-10.43;89.44
63819;BME280;49970;54.976;73.248;2023-11-21T07:27:25;102666.38;;;-10.41;90.22
63819;BME280;49970;54.976;73.248;2023-11-21T07:29:51;102672.06;;;-10.30;90.46
63819;BME280;49970;54.976;73.248;2023-11-21T07:32:17;102656.13;;;-10.24;89.85
63819;BME280;49970;54.976;73.248;2023-11-21T07:34:43;102659.56;;;-10.24;90.25
63819;BME280;49970;54.976;73.248;2023-11-21T07:37:10;102646.69;;;-10.25;90.00
63819;BME280;49970;54.976;73.248;2023-11-21T07:39:36;102643.38;;;-10.23;90.48
63819;BME280;49970;54.976;73.248;2023-11-21T07:42:07;102641.91;;;-10.18;90.60
63819;BME280;49970;54.976;73.248;2023-11-21T07:44:34;102638.66;;;-10.15;89.94
63819;BME280;49970;54.976;73.248;2023-11-21T07:47:00;102642.38;;;-10.09;90.84
63819;BME280;49970;54.976;73.248;2023-11-21T07:49:26;102636.53;;;-10.06;91.06
63819;BME280;49970;54.976;73.248;2023-11-21T07:51:52;102645.25;;;-10.02;91.07
63819;BME280;49970;54.976;73.248;2023-11-21T07:54:19;102656.53;;;-9.99;89.89
63819;BME280;49970;54.976;73.248;2023-11-21T07:56:45;102658.38;;;-9.96;90.03
63819;BME280;49970;54.976;73.248;2023-11-21T07:59:31;102627.56;;;-9.98;90.69
63819;BME280;49970;54.976;73.248;2023-11-21T08:02:44;102616.53;;;-9.95;91.14
63819;BME280;49970;54.976;73.248;2023-11-21T08:05:16;102614.09;;;-9.94;90.74
63819;BME280;49970;54.976;73.248;2023-11-21T08:07:48;102598.75;;;-9.92;90.79
63819;BME280;49970;54.976;73.248;2023-11-21T08:10:17;102605.63;;;-9.91;90.30
63819;BME280;49970;54.976;73.248;2023-11-21T08:12:49;102602.34;;;-9.89;91.16
63819;BME280;49970;54.976;73.248;2023-11-21T08:15:19;102606.91;;;-9.83;91.52
63819;BME280;49970;54.976;73.248;2023-11-21T08:17:48;102610.56;;;-9.78;91.53
63819;BME280;49970;54.976;73.248;2023-11-21T08:20:17;102615.13;;;-9.72;90.67
63819;BME280;49970;54.976;73.248;2023-11-21T08:22:51;102617.91;;;-9.68;91.69
63819;BME280;49970;54.976;73.248;2023-11-21T08:25:21;102605.97;;;-9.67;90.56
63819;BME280;49970;54.976;73.248;2023-11-21T08:27:52;102607.81;;;-9.65;91.70
63819;BME280;49970;54.976;73.248;2023-11-21T08:30:22;102613.97;;;-9.61;90.64
63819;BME280;49970;54.976;73.248;2023-11-21T08:32:52;102609.06;;;-9.57;90.74
63819;BME280;49970;54.976;73.248;2023-11-21T08:35:22;102613.81;;;-9.46;91.98
63819;BME280;49970;54.976;73.248;2023-11-21T08:37:52;102601.78;;;-9.47;91.06
63819;BME280;49970;54.976;73.248;2023-11-21T08:40:24;102605.38;;;-9.44;91.92
63819;BME280;49970;54.976;73.248;2023-11-21T08:42:56;102613.13;;;-9.42;90.93
63819;BME280;49970;54.976;73.248;2023-11-21T08:45:27;102602.81;;;-9.44;91.17
63819;BME280;49970;54.976;73.248;2023-11-21T08:47:59;102604.63;;;-9.41;91.04
63819;BME280;49970;54.976;73.248;2023-11-21T08:50:28;102593.34;;;-9.45;91.27
63819;BME280;49970;54.976;73.248;2023-11-21T08:52:59;102599.13;;;-9.49;90.85
63819;BME280;49970;54.976;73.248;2023-11-21T08:55:27;102582.88;;;-9.49;90.45
63819;BME280;49970;54.976;73.248;2023-11-21T08:57:59;102575.16;;;-9.49;91.92
63819;BME280;49970;54.976;73.248;2023-11-21T09:00:31;102567.47;;;-9.49;91.18
63819;BME280;49970;54.976;73.248;2023-11-21T09:03:01;102562.44;;;-9.48;91.32
63819;BME280;49970;54.976;73.248;2023-11-21T09:05:31;102559.00;;;-9.48;91.87
63819;BME280;49970;54.976;73.248;2023-11-21T09:08:01;102544.38;;;-9.49;90.65
63819;BME280;49970;54.976;73.248;2023-11-21T09:10:33;102555.66;;;-9.46;91.72
63819;BME280;49970;54.976;73.248;2023-11-21T09:13:06;102536.63;;;-9.51;91.23
63819;BME280;49970;54.976;73.248;2023-11-21T09:15:38;102537.50;;;-9.50;91.67
63819;BME280;49970;54.976;73.248;2023-11-21T09:18:09;102537.50;;;-9.50;90.88
63819;BME280;49970;54.976;73.248;2023-11-21T09:20:41;102539.19;;;-9.51;90.87
63819;BME280;49970;54.976;73.248;2023-11-21T09:23:14;102538.22;;;-9.53;91.96
63819;BME280;49970;54.976;73.248;2023-11-21T09:25:44;102534.88;;;-9.52;91.06
63819;BME280;49970;54.976;73.248;2023-11-21T09:28:17;102526.38;;;-9.51;91.24
63819;BME280;49970;54.976;73.248;2023-11-21T09:30:48;102533.25;;;-9.50;92.06
63819;BME280;49970;54.976;73.248;2023-11-21T09:33:17;102531.44;;;-9.52;90.85
63819;BME280;49970;54.976;73.248;2023-11-21T09:35:49;102520.00;;;-9.59;91.18
63819;BME280;49970;54.976;73.248;2023-11-21T09:38:23;102531.19;;;-9.57;91.82
63819;BME280;49970;54.976;73.248;2023-11-21T09:40:56;102530.25;;;-9.59;92.21
63819;BME280;49970;54.976;73.248;2023-11-21T09:43:30;102537.91;;;-9.61;90.78
63819;BME280;49970;54.976;73.248;2023-11-21T09:46:06;102542.16;;;-9.61;91.90
63819;BME280;49970;54.976;73.248;2023-11-21T09:48:39;102551.50;;;-9.62;91.50
63819;BME280;49970;54.976;73.248;2023-11-21T09:51:11;102555.84;;;-9.61;91.67
63819;BME280;49970;54.976;73.248;2023-11-21T09:53:43;102551.50;;;-9.62;90.91
63819;BME280;49970;54.976;73.248;2023-11-21T09:56:14;102560.81;;;-9.64;90.91
63819;BME280;49970;54.976;73.248;2023-11-21T09:58:47;102569.34;;;-9.65;92.07
63819;BME280;49970;54.976;73.248;2023-11-21T10:01:18;102564.13;;;-9.66;91.47
63819;BME280;49970;54.976;73.248;2023-11-21T10:03:49;102566.63;;;-9.68;92.21
63819;BME280;49970;54.976;73.248;2023-11-21T10:06:20;102565.75;;;-9.68;92.35
63819;BME280;49970;54.976;73.248;2023-11-21T10:08:50;102556.19;;;-9.71;91.93
63819;BME280;49970;54.976;73.248;2023-11-21T10:11:20;102551.00;;;-9.72;91.53
63819;BME280;49970;54.976;73.248;2023-11-21T10:13:54;102549.38;;;-9.70;91.62
63819;BME280;49970;54.976;73.248;2023-11-21T10:16:26;102531.38;;;-9.72;92.08
63819;BME280;49970;54.976;73.248;2023-11-21T10:19:01;102526.31;;;-9.70;91.45
63819;BME280;49970;54.976;73.248;2023-11-21T10:21:34;102517.00;;;-9.68;91.49
63819;BME280;49970;54.976;73.248;2023-11-21T10:24:04;102515.31;;;-9.68;91.55
63819;BME280;49970;54.976;73.248;2023-11-21T10:26:33;102523.84;;;-9.69;91.24
63819;BME280;49970;54.976;73.248;2023-11-21T10:29:03;102520.47;;;-9.68;91.20
63819;BME280;49970;54.976;73.248;2023-11-21T10:31:34;102523.75;;;-9.70;91.79
63819;BME280;49970;54.976;73.248;2023-11-21T10:34:15;102529.03;;;-9.67;91.21
63819;BME280;49970;54.976;73.248;2023-11-21T10:36:44;102525.59;;;-9.68;91.00
63819;BME280;49970;54.976;73.248;2023-11-21T10:39:20;102534.22;;;-9.66;91.76
63819;BME280;49970;54.976;73.248;2023-11-21T10:41:51;102517.88;;;-9.68;91.60
63819;BME280;49970;54.976;73.248;2023-11-21T10:44:22;102515.47;;;-9.65;91.44
63819;BME280;49970;54.976;73.248;2023-11-21T10:46:54;102505.22;;;-9.65;91.75
63819;BME280;49970;54.976;73.248;2023-11-21T10:49:28;102507.03;;;-9.62;91.22
63819;BME280;49970;54.976;73.248;2023-11-21T10:51:59;102502.00;;;-9.61;91.41
63819;BME280;49970;54.976;73.248;2023-11-21T10:54:28;102509.03;;;-9.57;92.65
63819;BME280;49970;54.976;73.248;2023-11-21T10:57:13;102491.19;;;-9.54;92.48
63819;BME280;49970;54.976;73.248;2023-11-21T10:59:46;102476.75;;;-9.51;91.78
63819;BME280;49970;54.976;73.248;2023-11-21T11:02:25;102481.13;;;-9.49;91.87
63819;BME280;49970;54.976;73.248;2023-11-21T11:04:54;102471.69;;;-9.50;92.61
63819;BME280;49970;54.976;73.248;2023-11-21T11:07:27;102465.47;;;-9.55;91.76
63819;BME280;49970;54.976;73.248;2023-11-21T11:09:54;102456.50;;;-9.45;92.82
63819;BME280;49970;54.976;73.248;2023-11-21T11:12:21;102459.16;;;-9.44;92.32
63819;BME280;49970;54.976;73.248;2023-11-21T11:14:48;102442.13;;;-9.42;92.63
63819;BME280;49970;54.976;73.248;2023-11-21T11:17:24;102452.38;;;-9.42;92.00
63819;BME280;49970;54.976;73.248;2023-11-21T11:19:50;102430.94;;;-9.44;93.10
63819;BME280;49970;54.976;73.248;2023-11-21T11:27:47;102433.75;;;-9.38;93.01
63819;BME280;49970;54.976;73.248;2023-11-21T11:31:04;102429.50;;;-9.37;93.22
63819;BME280;49970;54.976;73.248;2023-11-21T11:39:46;102422.75;;;-9.35;93.31
63819;BME280;49970;54.976;73.248;2023-11-21T11:43:26;102394.38;;;-9.38;92.34
63819;BME280;49970;54.976;73.248;2023-11-21T11:45:56;102398.66;;;-9.39;93.50
63819;BME280;49970;54.976;73.248;2023-11-21T11:48:25;102387.66;;;-9.36;93.14
63819;BME280;49970;54.976;73.248;2023-11-21T11:51:09;102375.59;;;-9.37;93.72
63819;BME280;49970;54.976;73.248;2023-11-21T11:53:39;102379.94;;;-9.36;92.41
63819;BME280;49970;54.976;73.248;2023-11-21T11:56:33;102380.81;;;-9.36;92.51
63819;BME280;49970;54.976;73.248;2023-11-21T11:59:03;102375.75;;;-9.34;93.45
63819;BME280;49970;54.976;73.248;2023-11-21T12:01:32;102377.50;;;-9.33;93.55
63819;BME280;49970;54.976;73.248;2023-11-21T12:06:43;102379.38;;;-9.29;93.41
63819;BME280;49970;54.976;73.248;2023-11-21T12:09:20;102380.34;;;-9.27;92.67
63819;BME280;49970;54.976;73.248;2023-11-21T12:11:48;102382.97;;;-9.25;93.49
63819;BME280;49970;54.976;73.248;2023-11-21T12:14:15;102386.50;;;-9.23;93.91
63819;BME280;49970;54.976;73.248;2023-11-21T12:16:42;102393.38;;;-9.22;93.36
63819;BME280;49970;54.976;73.248;2023-11-21T12:19:12;102403.88;;;-9.16;92.74
63819;BME280;49970;54.976;73.248;2023-11-21T12:21:52;102415.09;;;-9.14;92.92
63819;BME280;49970;54.976;73.248;2023-11-21T12:24:29;102401.41;;;-9.15;92.73
63819;BME280;49970;54.976;73.248;2023-11-21T12:27:22;102405.84;;;-9.11;93.38
63819;BME280;49970;54.976;73.248;2023-11-21T12:30:36;102418.78;;;-9.08;92.69
63819;BME280;49970;54.976;73.248;2023-11-21T12:33:04;102416.38;;;-9.05;93.37
63819;BME280;49970;54.976;73.248;2023-11-21T12:35:33;102414.75;;;-9.02;93.49
63819;BME280;49970;54.976;73.248;2023-11-21T12:38:01;102410.59;;;-8.99;93.21
63819;BME280;49970;54.976;73.248;2023-11-21T12:40:30;102402.91;;;-8.99;93.40
63819;BME280;49970;54.976;73.248;2023-11-21T12:42:59;102404.78;;;-8.95;93.88
63819;BME280;49970;54.976;73.248;2023-11-21T12:45:27;102394.66;;;-8.92;93.23
63819;BME280;49970;54.976;73.248;2023-11-21T12:47:59;102376.72;;;-8.90;93.21
63819;BME280;49970;54.976;73.248;2023-11-21T12:50:27;102340.88;;;-8.89;93.25
63819;BME280;49970;54.976;73.248;2023-11-21T12:53:05;102334.09;;;-8.87;93.16
63819;BME280;49970;54.976;73.248;2023-11-21T12:55:33;102325.47;;;-8.89;93.84
63819;BME280;49970;54.976;73.248;2023-11-21T12:58:07;102321.25;;;-8.87;94.28
63819;BME280;49970;54.976;73.248;2023-11-21T13:00:48;102338.34;;;-8.87;93.58
63819;BME280;49970;54.976;73.248;2023-11-21T13:03:27;102324.69;;;-8.86;93.39
63819;BME280;49970;54.976;73.248;2023-11-21T13:05:55;102358.06;;;-8.86;93.73
63819;BME280;49970;54.976;73.248;2023-11-21T13:08:24;102334.16;;;-8.85;92.89
63819;BME280;49970;54.976;73.248;2023-11-21T13:11:04;102327.34;;;-8.85;93.50
63819;BME280;49970;54.976;73.248;2023-11-21T13:13:45;102350.50;;;-8.83;93.78
63819;BME280;49970;54.976;73.248;2023-11-21T13:16:11;102353.19;;;-8.80;94.01